Time;durP1;ratioP1;P1;durP2;ratioP2;P2;SDS_P1;SDS_P2;PMS_P1;PMS_P2;Temp;Humidity;BMP_temperature;BMP_pressure;BME280_temperature;BME280_humidity;BME280_pressure;Samples;Min_cycle;Max_cycle;Signal;HPM_P1;HPM_P2
2022/03/13 00:00:49;;;;;;;82.93;22.65;;;7.70;64.80;;;;;;5001105;28;20174;-82
2022/03/13 00:03:17;;;;;;;80.97;16.92;;;7.60;67.10;;;;;;4964249;28;20173;-82
2022/03/13 00:05:46;;;;;;;82.80;18.33;;;7.50;69.00;;;;;;4963748;28;20269;-82
2022/03/13 00:08:26;;;;;;;82.55;18.02;;;7.50;68.80;;;;;;4985896;28;20170;-82
2022/03/13 00:10:56;;;;;;;83.97;18.88;;;7.50;68.20;;;;;;5000856;28;20193;-82
2022/03/13 00:13:30;;;;;;;81.72;17.08;;;7.50;68.00;;;;;;4999939;28;20167;-82
2022/03/13 00:16:08;;;;;;;83.65;18.88;;;7.60;65.20;;;;;;5001094;28;20189;-82
2022/03/13 00:18:36;;;;;;;87.18;20.95;;;7.70;62.60;;;;;;5001657;28;20642;-82
2022/03/13 00:21:03;;;;;;;80.20;19.58;;;7.80;60.10;;;;;;5001847;28;20202;-82
2022/03/13 00:23:33;;;;;;;85.47;18.27;;;7.90;54.90;;;;;;5001999;28;20167;-81
2022/03/13 00:25:59;;;;;;;79.53;16.20;;;8.00;51.70;;;;;;5002340;28;20658;-82
2022/03/13 00:28:25;;;;;;;82.43;17.33;;;8.00;50.40;;;;;;5001763;28;20569;-82
2022/03/13 00:30:51;;;;;;;80.67;17.83;;;7.80;53.10;;;;;;5000083;28;20174;-82
2022/03/13 00:33:17;;;;;;;83.00;19.80;;;7.70;54.10;;;;;;5001617;28;20462;-82
2022/03/13 00:35:43;;;;;;;80.95;18.48;;;7.60;55.50;;;;;;5001952;28;20186;-82
2022/03/13 00:38:09;;;;;;;87.10;19.97;;;7.50;56.70;;;;;;4999177;28;20198;-82
2022/03/13 00:40:35;;;;;;;79.70;17.37;;;7.50;58.10;;;;;;4999500;28;20488;-82
2022/03/13 00:43:02;;;;;;;81.13;17.85;;;7.40;57.70;;;;;;4999476;28;20409;-82
2022/03/13 00:45:29;;;;;;;82.25;17.73;;;7.50;56.80;;;;;;4999981;28;20171;-81
2022/03/13 00:48:01;;;;;;;80.28;18.00;;;7.50;55.60;;;;;;5001330;28;20190;-81
2022/03/13 00:50:27;;;;;;;82.13;19.45;;;7.40;55.90;;;;;;5001461;28;20171;-82
2022/03/13 00:52:53;;;;;;;85.03;19.20;;;7.50;54.30;;;;;;5001179;28;20230;-82
2022/03/13 00:55:19;;;;;;;81.38;19.83;;;7.50;54.90;;;;;;5001154;28;20166;-81
2022/03/13 00:57:45;;;;;;;81.38;18.40;;;7.50;56.10;;;;;;5001945;28;20279;-82
2022/03/13 01:00:12;;;;;;;84.90;17.63;;;7.50;55.10;;;;;;5001767;28;20201;-82
2022/03/13 01:02:38;;;;;;;84.95;17.52;;;7.50;54.10;;;;;;5001920;28;20166;-81
2022/03/13 01:05:04;;;;;;;83.40;18.43;;;7.50;53.10;;;;;;5000995;28;20644;-81
2022/03/13 01:07:30;;;;;;;79.67;18.40;;;7.40;53.70;;;;;;4999391;28;20190;-82
2022/03/13 01:09:55;;;;;;;80.43;16.43;;;7.30;52.90;;;;;;5001978;28;20480;-81
2022/03/13 01:12:21;;;;;;;81.60;19.13;;;7.20;53.20;;;;;;4999751;28;20201;-81
2022/03/13 01:14:47;;;;;;;78.97;15.83;;;7.20;53.20;;;;;;5001655;28;20170;-82
2022/03/13 01:17:13;;;;;;;82.30;20.20;;;7.20;54.40;;;;;;4999444;28;20448;-81
2022/03/13 01:19:38;;;;;;;79.67;16.63;;;7.10;54.40;;;;;;5001707;28;20402;-82
2022/03/13 01:22:06;;;;;;;80.23;16.17;;;7.10;52.90;;;;;;4999907;28;20956;-81
2022/03/13 01:24:40;;;;;;;80.25;17.23;;;7.10;52.40;;;;;;5001904;28;20163;-82
2022/03/13 01:27:06;;;;;;;81.35;18.98;;;7.10;52.60;;;;;;5000636;28;20206;-82
2022/03/13 01:29:32;;;;;;;89.20;20.23;;;7.10;50.40;;;;;;5000004;28;20163;-82
2022/03/13 01:31:59;;;;;;;82.57;17.05;;;7.00;51.30;;;;;;5001775;28;20179;-81
2022/03/13 01:34:38;;;;;;;80.68;15.93;;;7.00;51.10;;;;;;5000256;28;20627;-81
2022/03/13 01:37:11;;;;;;;79.57;17.08;;;7.00;48.90;;;;;;5000733;28;20218;-82
2022/03/13 01:39:37;;;;;;;75.78;16.52;;;6.90;47.70;;;;;;5000870;28;20147;-81
2022/03/13 01:42:04;;;;;;;75.97;15.00;;;6.90;45.70;;;;;;5000951;28;20294;-81
2022/03/13 01:44:29;;;;;;;81.45;15.50;;;6.90;42.40;;;;;;4999116;28;20438;-81
2022/03/13 01:46:56;;;;;;;81.27;14.90;;;6.90;39.60;;;;;;4999927;28;20251;-81
2022/03/13 01:49:23;;;;;;;79.90;15.15;;;6.90;37.80;;;;;;5001343;28;20167;-81
2022/03/13 01:51:49;;;;;;;78.93;13.65;;;6.90;35.20;;;;;;5002236;28;20225;-81
2022/03/13 01:54:15;;;;;;;78.43;14.00;;;6.90;34.10;;;;;;5003443;28;20545;-81
2022/03/13 01:56:41;;;;;;;80.10;13.20;;;6.80;32.30;;;;;;5004355;28;20195;-81
2022/03/13 01:59:09;;;;;;;73.45;10.88;;;6.80;31.10;;;;;;5001920;28;20464;-81
2022/03/13 02:01:35;;;;;;;74.00;11.35;;;6.80;29.40;;;;;;5004347;28;20171;-82
2022/03/13 02:04:00;;;;;;;75.73;11.37;;;6.80;28.50;;;;;;5003164;28;20496;-81
2022/03/13 02:06:27;;;;;;;78.77;12.67;;;6.70;27.10;;;;;;5004287;28;20689;-81
2022/03/13 02:08:56;;;;;;;75.75;12.68;;;6.70;25.10;;;;;;5003622;28;20177;-82
2022/03/13 02:11:24;;;;;;;81.18;11.80;;;6.70;23.40;;;;;;5004194;28;20661;-82
2022/03/13 02:13:53;;;;;;;77.68;11.40;;;6.70;21.10;;;;;;5003771;28;20225;-81
2022/03/13 02:16:20;;;;;;;76.50;12.07;;;6.70;18.60;;;;;;5003052;28;20200;-81
2022/03/13 02:18:52;;;;;;;78.00;12.00;;;6.70;16.40;;;;;;5004065;28;20190;-82
2022/03/13 02:21:19;;;;;;;84.43;12.90;;;6.70;15.30;;;;;;5003199;28;20171;-82
2022/03/13 02:23:45;;;;;;;77.57;12.93;;;6.70;13.70;;;;;;5003109;28;20261;-81
2022/03/13 02:26:11;;;;;;;75.65;12.70;;;6.60;12.00;;;;;;5002287;28;20205;-81
2022/03/13 02:28:42;;;;;;;77.37;13.20;;;6.60;10.60;;;;;;5004528;28;20158;-81
2022/03/13 02:31:19;;;;;;;76.32;13.93;;;6.60;11.10;;;;;;5003828;28;20167;-81
2022/03/13 02:33:45;;;;;;;75.80;13.48;;;6.60;8.40;;;;;;5003188;28;20158;-81
2022/03/13 02:36:32;;;;;;;77.17;14.90;;;6.60;6.00;;;;;;5002574;28;20193;-81
2022/03/13 02:39:05;;;;;;;77.03;14.38;;;6.60;2.60;;;;;;5003832;28;20252;-82
2022/03/13 02:41:32;;;;;;;79.35;15.45;;;6.60;1.30;;;;;;5002673;28;20189;-81
2022/03/13 02:43:57;;;;;;;76.80;14.90;;;6.60;1.00;;;;;;5003870;28;20243;-81
2022/03/13 02:46:44;;;;;;;79.63;16.00;;;6.60;1.00;;;;;;5003252;28;20210;-82
2022/03/13 02:49:10;;;;;;;77.00;13.68;;;6.60;1.00;;;;;;5003468;28;20441;-82
2022/03/13 02:51:36;;;;;;;77.10;14.70;;;6.60;1.00;;;;;;5003530;28;20169;-81
2022/03/13 02:54:02;;;;;;;77.70;11.10;;;6.60;1.00;;;;;;5003833;28;20433;-81
2022/03/13 02:56:28;;;;;;;82.17;15.67;;;6.60;1.00;;;;;;5003043;28;20421;-81
2022/03/13 02:58:53;;;;;;;74.87;12.60;;;6.60;1.00;;;;;;5002259;28;20576;-81
2022/03/13 03:01:19;;;;;;;77.50;13.97;;;6.60;1.00;;;;;;5003682;28;20178;-81
2022/03/13 03:03:45;;;;;;;75.60;12.70;;;6.50;1.00;;;;;;5001780;28;20178;-81
2022/03/13 03:06:12;;;;;;;79.40;14.70;;;6.50;1.00;;;;;;5002776;28;20186;-82
2022/03/13 03:08:38;;;;;;;78.07;11.10;;;6.50;1.00;;;;;;5001908;28;20171;-81
2022/03/13 03:11:04;;;;;;;79.00;12.80;;;6.60;1.00;;;;;;5002782;28;20638;-81
2022/03/13 03:13:30;;;;;;;78.10;11.00;;;6.60;1.00;;;;;;5002067;28;20202;-80
2022/03/13 03:15:56;;;;;;;76.90;12.20;;;6.60;1.00;;;;;;5002613;28;20436;-81
2022/03/13 03:18:21;;;;;;;73.97;12.73;;;6.60;1.00;;;;;;5001773;28;20454;-81
2022/03/13 03:20:47;;;;;;;73.77;11.67;;;6.60;1.00;;;;;;5003098;28;20213;-81
2022/03/13 03:23:13;;;;;;;74.00;10.97;;;6.60;1.00;;;;;;5002965;28;20171;-81
2022/03/13 03:25:39;;;;;;;75.50;11.80;;;6.60;1.00;;;;;;5002816;28;20162;-81
2022/03/13 03:28:05;;;;;;;78.17;17.87;;;6.60;1.00;;;;;;5001765;28;20437;-81
2022/03/13 03:30:31;;;;;;;78.22;20.35;;;6.60;1.00;;;;;;5002602;28;20413;-81
2022/03/13 03:33:01;;;;;;;79.60;20.20;;;6.60;1.00;;;;;;5002537;28;20173;-81
2022/03/13 03:35:27;;;;;;;78.15;19.90;;;6.60;1.00;;;;;;5002664;28;20404;-81
2022/03/13 03:37:54;;;;;;;79.33;18.90;;;6.60;1.00;;;;;;5002641;28;20198;-81
2022/03/13 03:40:26;;;;;;;78.32;17.80;;;6.60;1.00;;;;;;5001433;28;20414;-81
2022/03/13 03:42:55;;;;;;;74.50;15.65;;;6.60;1.00;;;;;;5003600;28;20181;-81
2022/03/13 03:45:20;;;;;;;75.93;15.85;;;6.60;1.00;;;;;;5001269;28;20193;-81
2022/03/13 03:47:47;;;;;;;75.43;13.03;;;6.50;1.00;;;;;;5003108;28;20214;-81
2022/03/13 03:50:17;;;;;;;81.35;12.82;;;6.40;1.00;;;;;;5001734;28;20241;-81
2022/03/13 03:52:45;;;;;;;79.03;13.75;;;6.30;1.00;;;;;;5003496;28;20167;-81
2022/03/13 03:55:11;;;;;;;76.75;15.30;;;6.40;1.00;;;;;;5000862;28;20175;-81
2022/03/13 03:57:37;;;;;;;77.15;12.93;;;6.40;1.00;;;;;;5002678;28;20199;-81
2022/03/13 04:00:05;;;;;;;78.17;15.63;;;6.40;1.00;;;;;;5002766;28;20209;-81
2022/03/13 04:02:32;;;;;;;75.55;16.70;;;6.30;1.00;;;;;;5001912;28;20159;-81
2022/03/13 04:04:58;;;;;;;83.43;21.15;;;6.30;1.00;;;;;;5003106;28;20534;-82
2022/03/13 04:07:23;;;;;;;79.80;18.27;;;6.30;1.00;;;;;;5002115;28;20193;-81
2022/03/13 04:09:49;;;;;;;77.70;21.60;;;6.20;1.00;;;;;;5000912;28;20185;-81
2022/03/13 04:12:15;;;;;;;78.13;24.20;;;6.20;1.00;;;;;;5002481;28;20162;-81
2022/03/13 04:14:40;;;;;;;76.30;16.23;;;6.30;1.00;;;;;;5000895;28;20534;-81
2022/03/13 04:17:06;;;;;;;77.27;15.13;;;6.40;1.00;;;;;;5001917;28;20193;-81
2022/03/13 04:19:33;;;;;;;81.18;17.48;;;6.50;1.00;;;;;;5002175;28;20178;-81
2022/03/13 04:21:58;;;;;;;78.43;19.23;;;6.50;1.00;;;;;;5002056;28;20170;-81
2022/03/13 04:24:25;;;;;;;78.03;18.73;;;6.50;1.00;;;;;;5001688;28;20163;-81
2022/03/13 04:26:50;;;;;;;79.32;25.63;;;6.50;1.00;;;;;;5001712;28;20452;-81
2022/03/13 04:29:20;;;;;;;78.30;22.30;;;6.50;1.00;;;;;;4984968;28;20170;-81
2022/03/13 04:31:46;;;;;;;81.57;21.67;;;6.50;1.00;;;;;;5000419;28;20410;-81
2022/03/13 04:34:12;;;;;;;78.47;21.63;;;6.50;1.00;;;;;;5001141;28;20158;-81
2022/03/13 04:36:38;;;;;;;77.95;22.02;;;6.50;1.00;;;;;;5001698;28;20269;-81
2022/03/13 04:39:05;;;;;;;79.70;21.77;;;6.50;1.00;;;;;;5001653;28;20708;-81
2022/03/13 04:41:32;;;;;;;83.88;24.38;;;6.50;1.00;;;;;;5001864;28;20209;-82
2022/03/13 04:43:58;;;;;;;77.38;16.42;;;6.40;1.00;;;;;;5001690;28;20163;-82
2022/03/13 04:46:24;;;;;;;72.77;12.30;;;6.40;1.00;;;;;;5001325;28;20289;-82
2022/03/13 04:48:49;;;;;;;73.60;11.93;;;6.50;1.00;;;;;;5001498;28;20405;-81
2022/03/13 04:51:15;;;;;;;75.83;11.97;;;6.40;1.00;;;;;;5000438;28;20410;-81
2022/03/13 04:53:41;;;;;;;75.93;11.50;;;6.40;1.00;;;;;;5001492;28;20226;-82
2022/03/13 04:56:07;;;;;;;73.90;12.50;;;6.40;1.00;;;;;;5000225;28;20436;-82
2022/03/13 04:58:33;;;;;;;78.97;16.97;;;6.40;1.00;;;;;;4999898;28;20476;-82
2022/03/13 05:01:02;;;;;;;77.55;15.57;;;6.30;1.00;;;;;;4999925;28;20416;-81
2022/03/13 05:03:27;;;;;;;77.15;11.85;;;6.40;1.00;;;;;;4999577;28;20166;-81
2022/03/13 05:05:56;;;;;;;77.77;13.10;;;6.40;1.00;;;;;;5001246;28;20201;-81
2022/03/13 05:08:23;;;;;;;72.80;10.23;;;6.50;1.00;;;;;;4999631;28;20497;-81
2022/03/13 05:10:48;;;;;;;73.53;12.32;;;6.50;1.00;;;;;;4999945;28;20174;-81
2022/03/13 05:13:15;;;;;;;78.63;14.70;;;6.50;1.00;;;;;;5002429;28;20189;-81
2022/03/13 05:15:42;;;;;;;77.22;17.38;;;6.50;1.00;;;;;;4998869;28;20253;-81
2022/03/13 05:18:09;;;;;;;81.57;20.05;;;6.60;1.00;;;;;;5001448;28;20209;-81
2022/03/13 05:20:35;;;;;;;74.35;18.30;;;6.60;1.00;;;;;;5000796;28;20175;-82
2022/03/13 05:23:05;;;;;;;75.32;18.55;;;6.50;1.00;;;;;;5000558;28;20186;-82
2022/03/13 05:25:32;;;;;;;76.55;18.42;;;6.60;1.00;;;;;;5001577;28;20171;-81
2022/03/13 05:27:58;;;;;;;75.35;17.98;;;6.60;1.00;;;;;;5002799;28;20190;-81
2022/03/13 05:30:24;;;;;;;76.70;18.95;;;6.60;1.00;;;;;;5005173;28;20205;-81
2022/03/13 05:32:50;;;;;;;76.10;18.20;;;6.60;1.00;;;;;;5003699;28;20634;-82
2022/03/13 05:35:17;;;;;;;79.82;16.85;;;6.60;1.00;;;;;;5004225;28;20175;-82
2022/03/13 05:37:44;;;;;;;75.28;13.27;;;6.60;1.00;;;;;;5005315;28;20194;-82
2022/03/13 05:40:13;;;;;;;75.53;11.38;;;6.60;1.00;;;;;;5004511;28;20162;-81
2022/03/13 05:42:40;;;;;;;73.63;11.65;;;6.60;1.00;;;;;;5004394;28;20221;-81
2022/03/13 05:45:06;;;;;;;71.68;10.85;;;6.60;1.00;;;;;;5004319;28;20163;-81
2022/03/13 05:47:32;;;;;;;71.05;11.32;;;6.60;1.00;;;;;;5004832;28;20190;-82
2022/03/13 05:50:00;;;;;;;72.33;11.00;;;6.70;1.00;;;;;;5005216;28;20190;-81
2022/03/13 05:52:26;;;;;;;72.72;10.15;;;6.70;1.00;;;;;;5006171;28;20561;-82
2022/03/13 05:54:52;;;;;;;76.85;11.65;;;6.70;1.00;;;;;;5004705;28;20645;-81
2022/03/13 05:57:18;;;;;;;69.77;9.47;;;6.60;1.00;;;;;;5003917;28;20190;-81
2022/03/13 05:59:43;;;;;;;74.20;12.53;;;6.60;1.00;;;;;;5003498;28;20177;-81
2022/03/13 06:02:09;;;;;;;74.07;10.57;;;6.60;1.00;;;;;;5004147;28;20237;-81
2022/03/13 06:04:36;;;;;;;75.10;17.80;;;6.70;1.00;;;;;;5004311;28;20173;-81
2022/03/13 06:07:05;;;;;;;75.45;13.20;;;6.60;1.00;;;;;;5004092;28;20190;-81
2022/03/13 06:09:31;;;;;;;73.57;12.90;;;6.70;1.00;;;;;;5005843;28;20171;-81
2022/03/13 06:11:59;;;;;;;72.78;10.63;;;6.60;1.00;;;;;;5004558;28;20170;-81
2022/03/13 06:14:25;;;;;;;73.88;12.70;;;6.60;1.00;;;;;;4987441;28;20185;-81
2022/03/13 06:16:50;;;;;;;74.55;12.27;;;6.60;1.00;;;;;;5002656;28;20273;-81
2022/03/13 06:19:16;;;;;;;71.43;9.47;;;6.60;1.00;;;;;;5004882;28;20230;-82
2022/03/13 06:21:42;;;;;;;76.00;11.10;;;6.70;1.00;;;;;;5004870;28;20186;-81
2022/03/13 06:24:08;;;;;;;73.75;13.60;;;6.60;1.00;;;;;;5004334;28;20173;-81
2022/03/13 06:26:36;;;;;;;72.28;10.52;;;6.60;1.00;;;;;;5002390;28;20202;-82
2022/03/13 06:29:02;;;;;;;70.95;10.20;;;6.60;1.00;;;;;;5003717;28;20166;-81
2022/03/13 06:31:28;;;;;;;75.10;11.40;;;6.60;1.00;;;;;;5004162;28;20173;-81
2022/03/13 06:33:54;;;;;;;76.70;11.30;;;6.70;1.00;;;;;;5002593;28;20612;-81
2022/03/13 06:36:19;;;;;;;78.27;12.40;;;6.60;1.00;;;;;;5003877;28;20190;-81
2022/03/13 06:38:45;;;;;;;80.63;15.80;;;6.60;1.00;;;;;;5002035;28;20218;-81
2022/03/13 06:41:11;;;;;;;74.27;12.80;;;6.60;1.00;;;;;;5001925;28;20163;-82
2022/03/13 06:43:36;;;;;;;73.37;11.93;;;6.70;1.00;;;;;;5000682;28;20194;-82
2022/03/13 06:46:03;;;;;;;77.93;20.97;;;6.70;1.00;;;;;;5002187;28;20417;-82
2022/03/13 06:48:31;;;;;;;75.15;15.82;;;6.70;1.00;;;;;;5001280;28;20166;-82
2022/03/13 06:50:57;;;;;;;73.78;15.70;;;6.70;1.00;;;;;;5000730;28;20179;-82
2022/03/13 06:53:24;;;;;;;72.78;13.38;;;6.70;1.00;;;;;;5000323;28;20174;-82
2022/03/13 06:55:52;;;;;;;75.57;13.95;;;6.70;1.00;;;;;;5000444;28;20181;-81
2022/03/13 06:58:19;;;;;;;73.00;13.02;;;6.70;1.00;;;;;;5001486;28;20190;-82
2022/03/13 07:00:45;;;;;;;71.47;12.43;;;6.70;1.00;;;;;;5001240;28;20245;-82
2022/03/13 07:03:13;;;;;;;75.60;13.40;;;6.80;1.00;;;;;;5000154;28;20266;-82
2022/03/13 07:05:42;;;;;;;74.18;13.75;;;6.90;1.00;;;;;;5000944;28;20171;-80
2022/03/13 07:08:08;;;;;;;77.35;19.35;;;6.90;1.00;;;;;;5001002;28;20274;-82
2022/03/13 07:10:34;;;;;;;79.60;19.93;;;7.00;1.00;;;;;;5001161;28;20206;-81
2022/03/13 07:12:59;;;;;;;78.00;20.30;;;7.00;1.00;;;;;;4999856;28;20418;-82
2022/03/13 07:15:27;;;;;;;77.53;22.80;;;7.10;1.00;;;;;;4999619;28;20170;-82
2022/03/13 07:17:53;;;;;;;77.97;26.73;;;7.10;1.00;;;;;;4999747;28;20230;-81
2022/03/13 07:20:22;;;;;;;80.40;28.38;;;7.20;1.00;;;;;;5001051;28;20173;-81
2022/03/13 07:22:47;;;;;;;77.93;30.48;;;7.10;1.00;;;;;;5000880;28;20661;-82
2022/03/13 07:25:17;;;;;;;76.77;27.07;;;7.20;1.00;;;;;;4998548;28;20174;-80
2022/03/13 07:27:43;;;;;;;76.32;21.67;;;7.20;1.00;;;;;;5000851;28;20281;-82
2022/03/13 07:30:14;;;;;;;81.72;21.88;;;7.20;1.00;;;;;;5001286;28;20166;-82
2022/03/13 07:32:46;;;;;;;76.90;19.90;;;7.20;1.00;;;;;;5000427;28;20573;-81
2022/03/13 07:35:13;;;;;;;76.53;17.60;;;7.30;1.00;;;;;;4998967;28;20526;-82
2022/03/13 07:37:39;;;;;;;79.35;15.77;;;7.30;1.00;;;;;;5001246;28;20202;-82
2022/03/13 07:40:06;;;;;;;76.97;14.30;;;7.30;1.00;;;;;;5000464;28;20170;-80
2022/03/13 07:42:31;;;;;;;75.32;12.50;;;7.30;1.00;;;;;;5000926;28;20523;-82
2022/03/13 07:44:57;;;;;;;75.40;13.23;;;7.40;1.00;;;;;;4999118;28;20519;-83
2022/03/13 07:47:24;;;;;;;77.83;11.77;;;7.40;1.00;;;;;;4998486;28;20190;-82
2022/03/13 07:49:50;;;;;;;74.10;12.43;;;7.40;1.00;;;;;;4998724;28;20237;-82
2022/03/13 07:52:17;;;;;;;76.90;13.33;;;7.30;1.00;;;;;;4998331;28;20626;-83
2022/03/13 07:54:43;;;;;;;72.78;12.93;;;7.40;1.00;;;;;;4999519;28;20512;-82
2022/03/13 07:57:09;;;;;;;74.57;11.50;;;7.40;1.00;;;;;;4998342;28;20193;-82
2022/03/13 07:59:34;;;;;;;73.90;11.30;;;7.50;1.00;;;;;;4998487;28;20398;-82
2022/03/13 08:02:01;;;;;;;72.67;10.90;;;7.40;1.00;;;;;;4997754;28;20182;-82
2022/03/13 08:04:28;;;;;;;71.65;12.25;;;7.50;1.00;;;;;;4997245;28;20194;-82
2022/03/13 08:06:53;;;;;;;73.90;14.40;;;7.60;1.00;;;;;;4998282;28;20182;-82
2022/03/13 08:09:19;;;;;;;73.37;11.60;;;7.60;1.00;;;;;;4998315;28;20197;-82
2022/03/13 08:11:45;;;;;;;79.13;20.70;;;7.70;1.00;;;;;;4997439;28;20635;-83
2022/03/13 08:14:12;;;;;;;78.00;17.67;;;7.80;1.00;;;;;;4998366;28;20174;-83
2022/03/13 08:16:38;;;;;;;78.47;23.38;;;7.80;1.00;;;;;;4996424;28;20194;-83
2022/03/13 08:19:05;;;;;;;78.07;20.63;;;8.00;1.00;;;;;;4997665;28;20271;-83
2022/03/13 08:21:31;;;;;;;76.57;20.95;;;8.00;1.00;;;;;;4997349;28;20410;-83
2022/03/13 08:23:57;;;;;;;77.80;22.35;;;8.20;1.00;;;;;;4999283;28;20163;-83
2022/03/13 08:26:23;;;;;;;74.57;19.95;;;8.20;1.00;;;;;;4996307;28;20301;-83
2022/03/13 08:28:49;;;;;;;80.13;23.73;;;8.30;1.00;;;;;;4999123;28;20205;-83
2022/03/13 08:31:15;;;;;;;80.63;27.17;;;8.40;1.00;;;;;;4997878;28;20410;-83
2022/03/13 08:33:43;;;;;;;75.53;24.30;;;8.50;1.00;;;;;;4996863;28;20212;-83
2022/03/13 08:36:08;;;;;;;79.80;23.85;;;8.60;1.00;;;;;;4997362;28;20182;-83
2022/03/13 08:38:34;;;;;;;74.97;20.43;;;8.60;1.00;;;;;;4997389;28;20236;-83
2022/03/13 08:41:00;;;;;;;73.35;15.38;;;8.60;1.00;;;;;;4997695;28;20583;-83
2022/03/13 08:43:26;;;;;;;71.70;13.53;;;8.60;1.00;;;;;;4997375;28;20241;-83
2022/03/13 08:45:52;;;;;;;73.17;15.73;;;8.40;1.00;;;;;;4997285;28;20197;-84
2022/03/13 08:48:20;;;;;;;75.43;21.47;;;8.40;1.00;;;;;;4997574;28;20668;-84
2022/03/13 08:50:46;;;;;;;79.10;23.02;;;8.50;1.00;;;;;;4995733;28;20500;-84
2022/03/13 08:53:12;;;;;;;78.30;22.60;;;8.50;1.00;;;;;;4997352;28;20582;-84
2022/03/13 08:55:38;;;;;;;78.63;24.67;;;8.70;1.00;;;;;;4996757;28;20281;-84
2022/03/13 08:58:03;;;;;;;75.20;15.33;;;8.80;1.00;;;;;;4996612;28;20252;-83
2022/03/13 09:00:29;;;;;;;74.00;14.93;;;9.00;1.00;;;;;;4998270;28;20532;-83
2022/03/13 09:02:55;;;;;;;71.40;16.90;;;9.00;1.00;;;;;;4999771;28;20167;-84
2022/03/13 09:05:21;;;;;;;79.37;14.90;;;9.00;1.00;;;;;;5001462;28;20398;-83
2022/03/13 09:07:47;;;;;;;74.50;13.90;;;9.00;1.00;;;;;;4999345;28;20247;-84
2022/03/13 09:10:14;;;;;;;74.70;14.10;;;9.00;1.00;;;;;;5001280;28;20178;-85
2022/03/13 09:12:40;;;;;;;72.18;11.90;;;9.00;1.00;;;;;;5001346;28;20178;-82
2022/03/13 09:15:06;;;;;;;73.47;11.57;;;9.10;1.00;;;;;;5002129;28;20519;-84
2022/03/13 09:17:53;;;;;;;76.32;16.08;;;9.10;1.00;;;;;;5000521;28;21068;-83
2022/03/13 09:20:19;;;;;;;76.20;12.40;;;9.20;1.00;;;;;;5001512;28;20216;-83
2022/03/13 09:22:45;;;;;;;78.43;13.32;;;9.30;1.00;;;;;;5000764;28;20217;-84
2022/03/13 09:25:11;;;;;;;72.90;11.45;;;9.40;1.00;;;;;;5005537;28;20162;-84
2022/03/13 09:27:37;;;;;;;80.20;12.57;;;9.40;1.00;;;;;;5004335;28;20209;-81
2022/03/13 09:30:03;;;;;;;75.63;12.40;;;9.40;1.00;;;;;;5004715;28;20182;-83
2022/03/13 09:32:29;;;;;;;75.95;12.50;;;9.40;1.00;;;;;;5003970;28;20913;-82
2022/03/13 09:34:54;;;;;;;73.37;18.17;;;9.40;1.00;;;;;;5001281;28;20177;-83
2022/03/13 09:37:21;;;;;;;74.00;14.17;;;9.40;1.00;;;;;;5003271;28;20548;-82
2022/03/13 09:39:47;;;;;;;72.93;14.77;;;9.50;1.00;;;;;;5002958;28;20162;-83
2022/03/13 09:42:13;;;;;;;73.72;13.10;;;9.60;1.00;;;;;;5002268;28;20167;-83
2022/03/13 09:44:39;;;;;;;73.93;13.53;;;9.70;1.00;;;;;;5001506;28;20173;-83
2022/03/13 09:47:05;;;;;;;81.97;25.27;;;9.90;1.00;;;;;;5001151;28;20191;-83
2022/03/13 09:49:32;;;;;;;82.57;32.77;;;10.00;1.00;;;;;;5001427;28;20197;-83
2022/03/13 09:51:58;;;;;;;79.35;30.63;;;10.10;1.00;;;;;;5002040;28;20443;-83
2022/03/13 09:54:25;;;;;;;81.40;32.38;;;10.10;1.00;;;;;;5002948;28;20228;-83
2022/03/13 09:56:51;;;;;;;84.93;38.05;;;10.30;1.00;;;;;;5000134;28;20197;-83
2022/03/13 09:59:16;;;;;;;83.27;34.47;;;10.40;1.00;;;;;;4999450;28;20194;-83
2022/03/13 10:01:42;;;;;;;84.37;33.10;;;10.40;1.00;;;;;;5000714;28;20175;-83
2022/03/13 10:04:08;;;;;;;83.80;40.70;;;10.60;1.00;;;;;;5000936;28;20241;-83
2022/03/13 10:07:08;;;;;;;85.90;38.50;;;10.70;1.00;;;;;;4999310;28;20262;-83
2022/03/13 10:09:35;;;;;;;78.43;25.63;;;10.80;1.00;;;;;;4998913;28;20249;-83
2022/03/13 10:12:06;;;;;;;84.47;37.42;;;11.10;1.00;;;;;;5000425;28;20159;-83
2022/03/13 10:14:32;;;;;;;82.38;22.45;;;11.30;1.00;;;;;;5000447;28;20159;-83
2022/03/13 10:16:58;;;;;;;83.90;28.00;;;11.40;1.00;;;;;;4999838;28;20673;-83
2022/03/13 10:19:27;;;;;;;81.00;19.63;;;11.50;1.00;;;;;;4999366;28;20198;-83
2022/03/13 10:22:12;;;;;;;80.20;16.25;;;11.70;1.00;;;;;;5000781;28;20929;-84
2022/03/13 10:24:42;;;;;;;81.05;19.55;;;11.90;1.00;;;;;;5002238;28;20228;-84
2022/03/13 10:27:10;;;;;;;77.22;15.75;;;12.00;1.00;;;;;;5000579;28;20207;-83
2022/03/13 10:29:36;;;;;;;82.57;24.88;;;12.00;1.00;;;;;;5000998;28;20508;-83
2022/03/13 10:32:03;;;;;;;77.53;17.87;;;12.20;1.00;;;;;;5000194;28;20170;-84
2022/03/13 10:34:29;;;;;;;79.35;23.13;;;12.30;1.00;;;;;;5000679;28;20944;-83
2022/03/13 10:36:55;;;;;;;85.80;35.28;;;12.30;1.00;;;;;;5000321;28;20275;-83
2022/03/13 10:39:20;;;;;;;83.33;27.63;;;12.30;1.00;;;;;;5000467;28;20221;-84
2022/03/13 10:42:00;;;;;;;81.80;22.40;;;12.30;1.00;;;;;;4999729;28;20191;-83
2022/03/13 10:44:27;;;;;;;81.28;20.92;;;12.50;1.00;;;;;;5000833;28;20225;-83
2022/03/13 10:46:58;;;;;;;79.38;20.48;;;12.70;1.00;;;;;;4999828;28;20190;-83
2022/03/13 10:49:43;;;;;;;82.68;24.55;;;12.90;1.00;;;;;;5000573;28;20657;-83
2022/03/13 10:52:29;;;;;;;86.05;36.10;;;13.00;1.00;;;;;;5000742;28;20154;-84
2022/03/13 10:54:56;;;;;;;90.95;45.25;;;13.30;1.00;;;;;;5000692;28;20155;-83
2022/03/13 10:57:23;;;;;;;86.20;46.25;;;13.50;1.00;;;;;;5000001;28;20554;-83
2022/03/13 11:00:13;;;;;;;92.75;59.53;;;13.60;1.00;;;;;;5000156;28;20189;-83
2022/03/13 11:02:42;;;;;;;92.85;60.88;;;13.60;1.00;;;;;;4999613;28;20179;-84
2022/03/13 11:05:13;;;;;;;94.93;69.90;;;13.60;1.00;;;;;;4999709;28;20170;-84
2022/03/13 11:07:42;;;;;;;95.15;59.95;;;13.70;1.00;;;;;;4999999;28;20187;-84
2022/03/13 11:10:12;;;;;;;100.10;66.00;;;13.80;1.00;;;;;;4999470;28;20166;-84
2022/03/13 11:12:43;;;;;;;97.18;65.03;;;13.90;1.00;;;;;;5067601;23;20496;-86
2022/03/13 11:15:11;;;;;;;100.88;78.20;;;13.90;1.00;;;;;;4995751;28;20177;-86
2022/03/13 11:17:40;;;;;;;110.80;76.15;;;14.10;1.00;;;;;;4994169;28;20203;-86
2022/03/13 11:20:08;;;;;;;100.10;78.47;;;14.20;1.00;;;;;;4995987;28;20745;-86
2022/03/13 11:22:34;;;;;;;98.80;76.30;;;14.40;1.00;;;;;;4995956;28;20241;-86
2022/03/13 11:25:06;;;;;;;97.27;73.27;;;14.50;1.00;;;;;;4993353;28;20406;-86
2022/03/13 11:27:35;;;;;;;99.30;79.13;;;14.50;1.00;;;;;;4995352;28;20425;-86
2022/03/13 11:30:06;;;;;;;92.80;56.10;;;14.50;1.00;;;;;;4995921;28;20401;-86
2022/03/13 11:32:38;;;;;;;91.50;62.27;;;14.60;1.00;;;;;;4995672;28;20489;-86
2022/03/13 11:35:15;;;;;;;85.47;36.17;;;14.70;1.00;;;;;;4995356;28;20464;-86
2022/03/13 11:37:43;;;;;;;80.30;19.07;;;15.00;1.00;;;;;;4995246;28;20460;-86
2022/03/13 11:40:15;;;;;;;85.27;39.23;;;15.20;1.00;;;;;;4996072;28;20390;-86
2022/03/13 11:43:12;;;;;;;81.30;31.17;;;15.40;1.00;;;;;;4996063;28;20382;-86
2022/03/13 11:45:42;;;;;;;85.40;34.87;;;15.10;1.00;;;;;;4994161;28;20402;-86
2022/03/13 11:48:14;;;;;;;81.03;24.47;;;15.10;1.00;;;;;;4993945;28;20504;-86
2022/03/13 11:50:54;;;;;;;81.80;22.77;;;15.10;1.00;;;;;;4994107;28;20414;-86
2022/03/13 11:53:25;;;;;;;84.90;21.23;;;14.90;1.00;;;;;;4995487;28;20460;-86
2022/03/13 11:56:00;;;;;;;77.57;25.07;;;14.60;1.00;;;;;;4995632;28;20387;-86
2022/03/13 11:58:51;;;;;;;85.00;22.87;;;14.40;1.00;;;;;;4994859;28;20983;-85
2022/03/13 12:01:20;;;;;;;83.30;32.47;;;14.60;1.00;;;;;;4993547;28;20402;-86
2022/03/13 12:04:07;;;;;;;84.33;41.33;;;14.80;1.00;;;;;;4995443;28;20939;-85
2022/03/13 12:06:50;;;;;;;79.17;20.87;;;15.10;1.00;;;;;;4986625;28;20445;-86
2022/03/13 12:09:25;;;;;;;76.87;17.63;;;15.30;1.00;;;;;;4993712;28;20568;-86
2022/03/13 12:12:01;;;;;;;87.70;39.67;;;15.50;1.00;;;;;;4995415;28;20414;-86
2022/03/13 12:14:55;;;;;;;86.33;44.83;;;15.60;1.00;;;;;;4995430;28;20429;-86
2022/03/13 12:17:25;;;;;;;81.90;23.03;;;15.50;1.00;;;;;;4994885;28;20498;-86
2022/03/13 12:19:53;;;;;;;82.80;33.37;;;15.40;1.00;;;;;;4994759;28;20800;-86
2022/03/13 12:22:19;;;;;;;86.67;43.70;;;15.50;1.00;;;;;;4995050;28;20485;-86
2022/03/13 12:24:50;;;;;;;88.60;46.20;;;15.70;1.00;;;;;;4994826;28;20957;-86
2022/03/13 12:27:16;;;;;;;87.20;48.80;;;15.80;1.00;;;;;;4994205;28;20463;-86
2022/03/13 12:29:44;;;;;;;88.97;41.07;;;15.90;1.00;;;;;;4995020;28;20430;-86
2022/03/13 12:32:11;;;;;;;88.23;52.80;;;15.90;1.00;;;;;;4994981;28;20492;-86
2022/03/13 12:34:44;;;;;;;91.50;56.33;;;16.00;1.00;;;;;;4994792;28;20415;-86
2022/03/13 12:37:10;;;;;;;80.10;28.30;;;16.20;1.00;;;;;;4993119;28;20529;-86
2022/03/13 12:39:57;;;;;;;94.10;54.60;;;16.30;1.00;;;;;;4995143;28;20580;-86
2022/03/13 12:42:25;;;;;;;90.70;52.80;;;16.30;1.00;;;;;;4995188;28;20143;-86
2022/03/13 12:45:06;;;;;;;90.70;59.40;;;16.30;1.00;;;;;;4994526;28;20409;-86
2022/03/13 12:47:39;;;;;;;90.17;56.50;;;16.30;1.00;;;;;;4995857;28;20426;-86